Terminal Aerodrome Forecast
Issued by NWS Shreveport, LA

Home | Current Version | Previous Version | Text Only | Print | Product List | Glossary On
Versions: 1 2 3 4 5 6 7 8 9 10 11 12
000
FTUS44 KSHV 030537
TAFELD
TAF
KELD 030537Z 0306/0406 00000KT P6SM SCT250
     FM031600 10004KT P6SM SCT250
     FM031800 09004KT P6SM SCT070 SCT250
     FM040100 VRB03KT P6SM SCT250=

USA.gov is the U.S. government's official web portal to all federal, state and local government web resources and services.